Harmony, Pennsylvania
Current Conditions -  °F | °C
As of 1:55 AM on Monday 24 Nov 2014 (Local Time) from KBTP Reporting Station
Overcast Overcast  
Wind Chill: 52°   Ceiling: 8000
Heat Index: 52°   Visibility: 10mi
Dew Point: 48°   Wind: 12mph
Humidity: 88%   Direction: 130°SE
Pressure: 29.44"   Gusts: 18mph
Location:  40.8°N, 80.13°W
Report Text: KBTP 240655Z AUTO 13010G16KT 10SM SCT060 OVC080 11/09 A2944 RMK AO1 P0002
Loading
Personal Weather Stations






























Interactive Weather Map New forecast layout! Learn more

10-Day Weather Forecast

Advertisements
Track Severe Weather on mobile